Time;durP1;ratioP1;P1;durP2;ratioP2;P2;SDS_P1;SDS_P2;PMS_P1;PMS_P2;Temp;Humidity;BMP_temperature;BMP_pressure;BME280_temperature;BME280_humidity;BME280_pressure;Samples;Min_cycle;Max_cycle;Signal;HPM_P1;HPM_P2
2021/03/05 00:02:32;;;;;;;35.00;13.65;;;;;;;1.67;72.38;98675.17;2171384;82;21143;-68
2021/03/05 00:05:34;;;;;;;36.98;12.43;;;;;;;1.67;72.25;98670.84;2171181;82;21278;-67
2021/03/05 00:08:36;;;;;;;31.90;12.55;;;;;;;1.71;71.91;98669.00;2171177;82;21602;-67
2021/03/05 00:11:38;;;;;;;35.68;12.90;;;;;;;1.71;72.05;98673.75;2163631;82;21285;-66
2021/03/05 00:14:42;;;;;;;31.62;12.50;;;;;;;1.75;71.71;98678.38;2161033;82;21163;-68
2021/03/05 00:17:44;;;;;;;35.05;13.25;;;;;;;1.76;71.73;98670.20;2160937;82;21592;-69
2021/03/05 00:20:46;;;;;;;34.58;13.03;;;;;;;1.78;71.95;98674.86;2161146;82;21253;-67
2021/03/05 00:23:48;;;;;;;34.65;12.40;;;;;;;1.78;71.64;98679.61;2161021;82;21175;-67
2021/03/05 00:26:51;;;;;;;35.35;12.90;;;;;;;1.70;71.92;98678.52;2161131;82;21155;-68
2021/03/05 00:29:53;;;;;;;35.98;13.30;;;;;;;1.60;71.77;98680.95;2161035;82;21290;-67
2021/03/05 00:32:55;;;;;;;35.83;13.38;;;;;;;1.62;72.06;98673.98;2161209;82;21754;-67
2021/03/05 00:35:57;;;;;;;33.90;12.40;;;;;;;1.69;72.11;98669.50;2161361;82;21273;-72
2021/03/05 00:38:59;;;;;;;34.10;13.48;;;;;;;1.74;71.87;98670.24;2161024;82;21169;-70
2021/03/05 00:42:01;;;;;;;33.38;12.68;;;;;;;1.76;71.92;98662.44;2161182;82;21293;-67
2021/03/05 00:45:03;;;;;;;34.78;12.73;;;;;;;1.81;71.55;98663.14;2161056;82;21135;-73
2021/03/05 00:48:05;;;;;;;41.73;14.13;;;;;;;1.80;71.79;98659.72;2160982;82;21174;-69
2021/03/05 00:51:08;;;;;;;39.05;14.13;;;;;;;1.85;71.55;98651.39;2161089;82;21166;-67
2021/03/05 00:54:10;;;;;;;34.83;13.75;;;;;;;1.86;71.63;98649.64;2161089;82;21163;-67
2021/03/05 00:57:12;;;;;;;37.03;14.55;;;;;;;1.86;71.56;98646.59;2161159;82;21293;-67
2021/03/05 01:00:14;;;;;;;37.53;13.15;;;;;;;1.89;71.46;98658.61;2161276;82;21293;-67
2021/03/05 01:03:16;;;;;;;35.90;13.60;;;;;;;1.90;71.71;98651.26;2161197;82;21294;-67
2021/03/05 01:06:18;;;;;;;37.40;14.25;;;;;;;1.92;71.68;98655.93;2161191;82;21753;-68
2021/03/05 01:09:20;;;;;;;39.90;14.60;;;;;;;1.93;71.81;98647.28;2161382;82;21328;-66
2021/03/05 01:12:22;;;;;;;40.65;14.40;;;;;;;1.96;71.84;98640.73;2176175;81;21293;-67
2021/03/05 01:15:24;;;;;;;36.85;14.93;;;;;;;2.05;71.68;98640.90;2178590;81;21123;-67
2021/03/05 01:18:26;;;;;;;37.38;14.87;;;;;;;2.05;71.44;98646.08;2178593;81;21281;-70
2021/03/05 01:21:28;;;;;;;39.92;15.05;;;;;;;1.97;71.67;98645.02;2178680;81;21724;-69
2021/03/05 01:24:30;;;;;;;38.95;15.45;;;;;;;1.85;72.11;98644.93;2178925;81;21146;-67
2021/03/05 01:27:32;;;;;;;37.93;15.58;;;;;;;1.80;72.20;98653.70;2178603;81;21273;-73
2021/03/05 01:30:34;;;;;;;38.40;15.05;;;;;;;1.73;72.36;98643.52;2178577;81;21736;-68
2021/03/05 01:33:36;;;;;;;38.75;15.63;;;;;;;1.76;72.56;98647.76;2178533;81;21285;-67
2021/03/05 01:36:38;;;;;;;37.83;15.70;;;;;;;1.77;72.50;98643.42;2178572;81;21752;-70
2021/03/05 01:39:40;;;;;;;40.52;16.35;;;;;;;1.73;72.51;98646.09;2178782;81;21150;-69
2021/03/05 01:42:43;;;;;;;39.85;15.55;;;;;;;1.73;72.78;98638.80;2178527;81;21708;-71
2021/03/05 01:45:45;;;;;;;38.98;14.75;;;;;;;1.72;73.09;98639.67;2178895;81;21145;-69
2021/03/05 01:48:47;;;;;;;40.78;16.52;;;;;;;1.73;72.85;98646.55;2150780;82;21712;-67
2021/03/05 01:51:49;;;;;;;39.53;16.12;;;;;;;1.71;72.69;98648.31;2178515;81;21300;-69
2021/03/05 01:54:51;;;;;;;42.15;17.07;;;;;;;1.64;72.83;98638.61;2178683;81;21131;-71
2021/03/05 01:57:53;;;;;;;39.20;16.40;;;;;;;1.68;72.83;98651.86;2179022;81;21150;-67
2021/03/05 02:00:56;;;;;;;42.67;17.17;;;;;;;1.67;72.79;98648.03;2178567;81;21277;-71
2021/03/05 02:03:58;;;;;;;41.68;16.37;;;;;;;1.69;72.96;98650.95;2178510;81;21292;-67
2021/03/05 02:07:00;;;;;;;43.28;17.95;;;;;;;1.70;73.18;98663.00;2178598;81;21749;-69
2021/03/05 02:10:02;;;;;;;38.58;16.37;;;;;;;1.63;73.65;98662.77;2178502;81;21261;-67
2021/03/05 02:13:04;;;;;;;41.92;17.77;;;;;;;1.59;73.61;98665.48;2178835;81;21327;-66
2021/03/05 02:16:06;;;;;;;43.15;16.85;;;;;;;1.54;74.50;98666.91;2178550;81;21281;-67
2021/03/05 02:19:08;;;;;;;41.55;17.30;;;;;;;1.48;74.38;98664.03;2178540;81;21284;-66
2021/03/05 02:22:10;;;;;;;41.75;17.75;;;;;;;1.45;74.29;98665.84;2178740;81;21281;-67
2021/03/05 02:25:12;;;;;;;41.73;17.80;;;;;;;1.46;74.07;98669.67;2178519;81;21289;-67
2021/03/05 02:28:14;;;;;;;42.15;17.02;;;;;;;1.47;74.07;98661.03;2178486;81;21130;-66
2021/03/05 02:31:16;;;;;;;41.28;17.15;;;;;;;1.49;74.24;98668.30;2178475;81;21309;-68
2021/03/05 02:34:18;;;;;;;46.68;17.45;;;;;;;1.53;74.14;98669.08;2178544;81;21145;-67
2021/03/05 02:37:20;;;;;;;43.98;16.75;;;;;;;1.56;74.18;98670.28;2178600;81;21270;-67
2021/03/05 02:40:22;;;;;;;38.58;15.83;;;;;;;1.57;74.06;98660.35;2178853;81;21115;-67
2021/03/05 02:43:24;;;;;;;43.73;17.30;;;;;;;1.59;73.99;98666.77;2178584;81;21704;-71
2021/03/05 02:46:26;;;;;;;39.92;17.57;;;;;;;1.64;73.90;98670.93;2178647;81;21264;-67
2021/03/05 02:49:28;;;;;;;39.88;16.87;;;;;;;1.68;74.00;98672.97;2178583;81;21768;-70
2021/03/05 02:52:30;;;;;;;44.08;17.37;;;;;;;1.74;74.02;98676.70;2178440;81;21300;-70
2021/03/05 02:55:32;;;;;;;41.50;17.67;;;;;;;1.84;73.96;98670.38;2178628;81;21578;-70
2021/03/05 02:58:34;;;;;;;42.75;17.48;;;;;;;1.90;73.87;98664.19;2178514;81;21284;-68
2021/03/05 03:01:37;;;;;;;48.65;18.17;;;;;;;1.92;73.96;98664.98;2178547;81;21276;-71
2021/03/05 03:04:40;;;;;;;46.68;18.37;;;;;;;1.88;73.99;98674.58;2178616;81;21147;-68
2021/03/05 03:07:42;;;;;;;41.88;17.05;;;;;;;1.90;74.12;98670.66;2178494;81;21740;-70
2021/03/05 03:10:44;;;;;;;40.25;16.45;;;;;;;1.86;74.39;98676.34;2178758;81;21170;-68
2021/03/05 03:13:47;;;;;;;41.65;17.40;;;;;;;2.02;74.37;98678.05;2150559;82;21297;-67
2021/03/05 03:16:49;;;;;;;40.23;17.25;;;;;;;2.05;74.09;98675.83;2178474;81;21752;-67
2021/03/05 03:19:51;;;;;;;43.10;17.80;;;;;;;1.94;74.12;98672.27;2178479;81;21274;-68
2021/03/05 03:22:53;;;;;;;43.70;17.67;;;;;;;1.92;74.40;98678.38;2178759;81;21158;-69
2021/03/05 03:25:55;;;;;;;45.50;18.10;;;;;;;1.88;74.50;98679.75;2178667;81;21729;-69
2021/03/05 03:28:57;;;;;;;42.30;17.85;;;;;;;1.84;74.57;98675.98;2178401;81;21273;-69
2021/03/05 03:31:59;;;;;;;44.13;17.87;;;;;;;1.81;74.79;98681.24;2178647;81;21305;-67
2021/03/05 03:35:01;;;;;;;45.50;18.87;;;;;;;1.79;75.17;98681.29;2178482;81;21288;-67
2021/03/05 03:38:03;;;;;;;42.58;17.92;;;;;;;1.76;75.24;98682.67;2178587;81;21285;-68
2021/03/05 03:41:05;;;;;;;43.05;17.98;;;;;;;1.77;75.45;98687.39;2178493;81;21099;-67
2021/03/05 03:44:07;;;;;;;41.88;17.45;;;;;;;1.76;75.54;98686.55;2178468;81;21284;-67
2021/03/05 03:47:09;;;;;;;46.55;18.75;;;;;;;1.76;75.75;98690.88;2178478;81;21153;-67
2021/03/05 03:50:11;;;;;;;43.52;18.00;;;;;;;1.79;75.64;98687.75;2178459;81;21733;-67
2021/03/05 03:53:14;;;;;;;46.18;19.77;;;;;;;1.79;75.64;98687.75;2178409;81;21764;-67
2021/03/05 03:56:16;;;;;;;46.55;18.95;;;;;;;1.78;75.65;98691.67;2178509;81;21796;-67
2021/03/05 03:59:18;;;;;;;43.73;18.10;;;;;;;1.76;76.00;98694.77;2178761;81;21297;-67
2021/03/05 04:02:20;;;;;;;44.05;18.12;;;;;;;1.82;76.34;98686.83;2178492;81;21257;-67
2021/03/05 04:05:22;;;;;;;42.78;18.82;;;;;;;1.83;76.15;98684.20;2178755;81;21265;-66
2021/03/05 04:08:24;;;;;;;48.20;19.20;;;;;;;1.78;76.05;98688.66;2178446;81;21276;-68
2021/03/05 04:11:26;;;;;;;43.15;19.30;;;;;;;1.79;76.32;98695.52;2173016;81;21733;-69
2021/03/05 04:14:28;;;;;;;45.10;19.50;;;;;;;1.82;76.22;98690.70;2161032;82;21115;-67
2021/03/05 04:17:30;;;;;;;44.65;18.37;;;;;;;1.81;76.42;98694.17;2161030;82;21579;-69
2021/03/05 04:20:32;;;;;;;42.65;18.40;;;;;;;1.83;76.31;98700.17;2161037;82;21151;-70
2021/03/05 04:23:34;;;;;;;42.48;18.32;;;;;;;1.80;76.21;98698.97;2160932;82;21555;-68
2021/03/05 04:26:37;;;;;;;43.75;17.35;;;;;;;1.80;76.68;98702.84;2140055;82;21571;-71
2021/03/05 04:29:39;;;;;;;47.17;19.92;;;;;;;1.73;76.65;98703.45;2140223;82;21589;-68
2021/03/05 04:32:42;;;;;;;46.35;18.57;;;;;;;1.67;76.73;98710.09;2161123;82;21281;-67
2021/03/05 04:35:44;;;;;;;47.85;20.15;;;;;;;1.61;77.00;98714.11;2161088;82;21277;-67
2021/03/05 04:38:46;;;;;;;45.92;19.20;;;;;;;1.62;77.08;98711.48;2161225;82;21289;-67
2021/03/05 04:41:48;;;;;;;51.68;20.95;;;;;;;1.69;77.41;98722.52;2161166;82;21305;-67
2021/03/05 04:44:51;;;;;;;42.78;16.40;;;;;;;1.63;78.66;98715.77;2161208;82;21709;-68
2021/03/05 04:47:53;;;;;;;38.10;15.20;;;;;;;1.43;78.32;98726.63;2161510;82;21293;-67
2021/03/05 04:50:55;;;;;;;34.13;13.32;;;;;;;1.26;78.46;98725.75;2161294;82;21698;-67
2021/03/05 04:53:57;;;;;;;29.98;10.35;;;;;;;1.18;78.37;98732.86;2161190;82;21321;-68
2021/03/05 04:56:59;;;;;;;26.37;8.88;;;;;;;1.02;78.97;98731.94;2161212;82;21745;-69
2021/03/05 05:00:01;;;;;;;25.05;8.15;;;;;;;0.82;79.15;98732.39;2161564;81;21285;-67
2021/03/05 05:03:04;;;;;;;25.88;8.75;;;;;;;0.73;79.47;98744.66;2161255;82;21717;-67
2021/03/05 05:06:06;;;;;;;22.82;7.25;;;;;;;0.56;79.80;98757.51;2161176;82;21266;-68
2021/03/05 05:09:08;;;;;;;26.30;8.35;;;;;;;0.43;80.38;98758.20;2161205;82;21679;-67
2021/03/05 05:12:10;;;;;;;24.15;8.00;;;;;;;0.31;80.41;98753.29;2165656;81;21154;-66
2021/03/05 05:15:12;;;;;;;22.73;7.40;;;;;;;0.27;80.21;98758.94;2171340;82;21574;-66
2021/03/05 05:18:14;;;;;;;23.12;7.65;;;;;;;0.19;80.53;98766.42;2171351;82;21281;-66
2021/03/05 05:21:16;;;;;;;18.95;6.60;;;;;;;0.10;80.29;98761.88;2171293;82;21249;-67
2021/03/05 05:24:18;;;;;;;21.37;6.42;;;;;;;0.03;80.72;98785.22;2171328;82;22038;-67
2021/03/05 05:27:20;;;;;;;21.62;6.67;;;;;;;-0.07;80.43;98781.95;2171350;82;21269;-67
2021/03/05 05:30:22;;;;;;;22.70;6.87;;;;;;;-0.13;81.00;98779.50;2171332;82;21587;-67
2021/03/05 05:33:25;;;;;;;20.75;5.87;;;;;;;-0.14;81.08;98788.10;2171285;82;21277;-67
2021/03/05 05:36:27;;;;;;;18.70;5.50;;;;;;;-0.15;80.71;98791.58;2171335;82;21726;-67
2021/03/05 05:39:29;;;;;;;19.25;5.08;;;;;;;-0.23;80.40;98799.43;2171294;82;21285;-67
2021/03/05 05:42:31;;;;;;;19.40;5.30;;;;;;;-0.33;80.84;98791.45;2171371;82;21728;-66
2021/03/05 05:45:33;;;;;;;17.05;5.05;;;;;;;-0.39;81.30;98801.42;2171272;82;21285;-68
2021/03/05 05:48:35;;;;;;;17.87;4.67;;;;;;;-0.47;80.83;98804.14;2171399;82;21285;-69
2021/03/05 05:51:38;;;;;;;16.40;4.40;;;;;;;-0.49;81.12;98812.31;2171134;82;21127;-69
2021/03/05 05:54:40;;;;;;;16.67;4.37;;;;;;;-0.45;81.20;98802.83;2171306;82;21270;-67
2021/03/05 05:57:42;;;;;;;17.02;4.15;;;;;;;-0.47;80.95;98804.14;2171402;82;21289;-67
2021/03/05 06:00:44;;;;;;;19.05;4.97;;;;;;;-0.50;81.16;98816.21;2171363;82;21273;-68
2021/03/05 06:03:46;;;;;;;17.17;4.67;;;;;;;-0.50;81.09;98813.64;2171475;82;21277;-67
2021/03/05 06:06:48;;;;;;;18.10;5.30;;;;;;;-0.46;81.11;98835.49;2171289;82;21183;-67
2021/03/05 06:09:50;;;;;;;17.15;4.58;;;;;;;-0.43;80.79;98822.55;2171402;82;21748;-67
2021/03/05 06:12:52;;;;;;;16.57;4.60;;;;;;;-0.41;80.89;98834.13;2165051;82;21298;-67
2021/03/05 06:15:54;;;;;;;16.87;4.60;;;;;;;-0.38;80.86;98831.03;2161149;81;21132;-69
2021/03/05 06:18:57;;;;;;;18.55;4.78;;;;;;;-0.32;80.56;98833.11;2161124;82;21143;-68
2021/03/05 06:21:59;;;;;;;16.62;5.25;;;;;;;-0.27;80.39;98832.16;2161302;82;21151;-67
2021/03/05 06:25:02;;;;;;;15.43;4.33;;;;;;;-0.22;80.30;98843.68;2161585;82;21286;-67
2021/03/05 06:28:04;;;;;;;16.15;4.50;;;;;;;-0.23;80.15;98854.86;2161150;82;21120;-68
2021/03/05 06:31:06;;;;;;;;;;;;;;;-0.20;80.50;98864.70;2163513;82;21154;-67
2021/03/05 06:34:08;;;;;;;20.45;5.20;;;;;;;-0.12;80.37;98858.56;2161215;82;20507;-70
2021/03/05 06:37:11;;;;;;;17.80;5.00;;;;;;;-0.08;80.06;98866.20;2161061;82;21598;-68
2021/03/05 06:40:13;;;;;;;18.82;5.70;;;;;;;-0.07;79.92;98865.34;2161131;82;21618;-68
2021/03/05 06:43:15;;;;;;;19.27;5.33;;;;;;;-0.03;80.12;98867.00;2161076;82;21139;-67
2021/03/05 06:46:17;;;;;;;18.75;5.15;;;;;;;0.04;79.96;98884.48;2161089;82;21139;-67
2021/03/05 06:49:21;;;;;;;17.62;5.00;;;;;;;0.05;79.72;98886.19;2161198;81;21725;-66
2021/03/05 06:52:23;;;;;;;15.20;4.28;;;;;;;0.05;79.81;98887.93;2160867;82;21131;-69
2021/03/05 06:55:25;;;;;;;16.27;4.12;;;;;;;0.16;79.51;98893.31;2161229;82;21598;-70
2021/03/05 06:58:27;;;;;;;16.65;4.45;;;;;;;0.25;79.38;98892.29;2161482;82;21139;-71
2021/03/05 07:01:30;;;;;;;14.90;3.58;;;;;;;0.24;79.37;98902.64;2161545;82;21155;-71
2021/03/05 07:04:32;;;;;;;15.25;3.83;;;;;;;0.29;79.26;98901.68;2161008;82;21147;-68
2021/03/05 07:07:34;;;;;;;16.23;3.92;;;;;;;0.32;78.93;98905.49;2161292;82;21583;-66
2021/03/05 07:10:36;;;;;;;16.80;3.85;;;;;;;0.26;78.98;98906.90;2161095;82;21150;-67
2021/03/05 07:13:38;;;;;;;14.75;3.80;;;;;;;0.28;78.81;98912.88;2160951;81;21191;-67
2021/03/05 07:16:41;;;;;;;13.40;3.87;;;;;;;0.38;78.68;98915.30;2161128;82;21286;-67
2021/03/05 07:19:43;;;;;;;18.98;4.45;;;;;;;0.39;78.08;98924.72;2161044;82;21135;-67
2021/03/05 07:22:45;;;;;;;19.70;4.78;;;;;;;0.37;78.15;98923.91;2161011;82;21709;-67
2021/03/05 07:25:50;;;;;;;17.15;4.83;;;;;;;0.28;77.85;98919.32;2161061;82;21606;-67
2021/03/05 07:28:52;;;;;;;19.45;4.92;;;;;;;0.31;77.69;98920.55;2160936;82;21579;-67
2021/03/05 07:31:54;;;;;;;19.40;5.17;;;;;;;0.28;78.16;98920.61;2160960;82;21155;-68
2021/03/05 07:34:57;;;;;;;21.77;5.97;;;;;;;0.23;77.47;98931.47;2140050;82;21746;-68
2021/03/05 07:37:59;;;;;;;20.48;5.72;;;;;;;0.23;78.16;98946.95;2161054;82;21616;-68
2021/03/05 07:41:02;;;;;;;;;;;;;;;0.23;77.62;98947.37;2163951;82;21286;-67
2021/03/05 07:44:05;;;;;;;23.22;5.47;;;;;;;0.24;77.91;98952.50;2161195;82;20243;-67
2021/03/05 07:47:07;;;;;;;20.68;6.03;;;;;;;0.29;77.75;98964.90;2161317;82;21265;-67
2021/03/05 07:50:09;;;;;;;18.65;5.05;;;;;;;0.52;77.37;98959.78;2161045;82;21194;-67
2021/03/05 07:53:12;;;;;;;20.88;5.60;;;;;;;0.75;76.85;98968.80;2161226;82;21310;-66
2021/03/05 07:56:14;;;;;;;22.15;6.42;;;;;;;0.92;76.54;98973.23;2161055;82;21163;-67
2021/03/05 07:59:16;;;;;;;21.62;6.37;;;;;;;1.14;75.73;98974.94;2161091;82;21143;-68
2021/03/05 08:02:18;;;;;;;21.33;6.30;;;;;;;1.18;75.28;98978.33;2161269;82;21575;-68
2021/03/05 08:05:20;;;;;;;22.00;6.40;;;;;;;1.23;74.51;98984.69;2161227;82;21718;-68
2021/03/05 08:08:22;;;;;;;19.87;5.78;;;;;;;1.40;74.59;98985.64;2161259;82;21104;-67
2021/03/05 08:11:24;;;;;;;21.80;5.50;;;;;;;1.60;73.64;98987.34;2161441;82;21705;-67
2021/03/05 08:14:27;;;;;;;20.95;6.12;;;;;;;1.61;72.80;98992.93;2177384;81;21293;-67
2021/03/05 08:17:29;;;;;;;24.72;6.05;;;;;;;1.55;73.58;98990.45;2178761;82;21115;-67
2021/03/05 08:20:32;;;;;;;23.70;7.00;;;;;;;1.47;73.76;98997.55;2178745;81;21594;-66
2021/03/05 08:23:34;;;;;;;23.92;6.67;;;;;;;1.38;74.17;98996.84;2178599;81;21142;-68
2021/03/05 08:26:36;;;;;;;22.45;6.40;;;;;;;1.45;73.76;99000.59;2178914;82;21138;-68
2021/03/05 08:29:38;;;;;;;25.75;6.30;;;;;;;1.45;73.62;99009.21;2178806;81;21142;-67
2021/03/05 08:32:40;;;;;;;22.27;7.20;;;;;;;1.31;73.68;99006.06;2178545;81;21269;-67
2021/03/05 08:35:42;;;;;;;22.40;6.70;;;;;;;1.23;73.98;99010.08;2178851;81;21107;-67
2021/03/05 08:38:44;;;;;;;23.10;6.80;;;;;;;1.22;74.47;99010.95;2178657;81;21273;-67
2021/03/05 08:41:46;;;;;;;22.07;6.92;;;;;;;1.26;74.25;99012.59;2178628;81;21277;-67
2021/03/05 08:44:48;;;;;;;22.82;7.10;;;;;;;1.35;74.25;99013.72;2178644;81;21305;-67
2021/03/05 08:47:51;;;;;;;23.00;6.90;;;;;;;1.35;74.27;99019.31;2178649;81;21147;-67
2021/03/05 08:50:53;;;;;;;24.35;7.05;;;;;;;1.45;74.11;99019.55;2178621;81;21265;-68
2021/03/05 08:53:56;;;;;;;23.50;7.60;;;;;;;1.66;74.22;99025.14;2150741;82;21111;-67
2021/03/05 08:56:59;;;;;;;24.77;7.70;;;;;;;1.94;73.56;99034.45;2178483;81;21165;-67
2021/03/05 09:00:01;;;;;;;23.20;7.75;;;;;;;2.06;73.45;99033.31;2178522;81;21266;-67
2021/03/05 09:03:03;;;;;;;23.67;8.08;;;;;;;2.26;72.47;99034.14;2178838;81;21143;-67
2021/03/05 09:06:05;;;;;;;23.07;7.83;;;;;;;2.19;71.73;99037.77;2178723;81;21590;-67
2021/03/05 09:09:07;;;;;;;27.65;8.35;;;;;;;2.14;72.99;99034.42;2178693;82;21135;-70
2021/03/05 09:12:11;;;;;;;24.00;8.65;;;;;;;2.07;72.58;99050.55;2177175;81;21300;-68
2021/03/05 09:15:14;;;;;;;26.42;8.68;;;;;;;1.79;72.08;99046.42;2161306;82;21258;-67
2021/03/05 09:18:16;;;;;;;26.30;8.45;;;;;;;1.63;72.97;99055.79;2161196;82;21285;-68
2021/03/05 09:21:18;;;;;;;23.57;7.95;;;;;;;1.40;73.25;99055.42;2161492;82;21171;-68
2021/03/05 09:24:21;;;;;;;24.65;8.38;;;;;;;1.27;73.62;99056.95;2161500;82;21301;-69
2021/03/05 09:27:23;;;;;;;25.65;9.13;;;;;;;1.37;73.60;99059.76;2161189;82;21143;-68
2021/03/05 09:30:25;;;;;;;26.95;8.53;;;;;;;1.48;73.66;99068.61;2161279;82;21706;-67
2021/03/05 09:33:27;;;;;;;;;;;;;;;1.55;73.47;99069.31;2163584;82;21123;-67
2021/03/05 09:36:30;;;;;;;24.67;8.63;;;;;;;1.53;73.14;99065.92;2140311;82;20217;-67
2021/03/05 09:39:32;;;;;;;25.05;8.25;;;;;;;1.68;73.15;99068.62;2161136;82;21649;-67
2021/03/05 09:42:34;;;;;;;23.80;8.60;;;;;;;1.78;73.16;99070.58;2161141;81;21163;-67
2021/03/05 09:45:36;;;;;;;24.90;7.97;;;;;;;1.79;73.16;99071.83;2161171;82;21140;-67
2021/03/05 09:48:38;;;;;;;23.80;8.05;;;;;;;1.69;72.08;99071.17;2161501;82;21163;-67
2021/03/05 09:51:40;;;;;;;22.45;7.70;;;;;;;1.75;71.24;99075.36;2161068;82;21155;-68
2021/03/05 09:54:42;;;;;;;23.65;7.10;;;;;;;1.94;71.73;99087.91;2161146;82;21598;-70
2021/03/05 09:57:45;;;;;;;22.93;7.40;;;;;;;1.96;71.58;99087.45;2161223;82;21583;-67
2021/03/05 10:00:47;;;;;;;23.90;7.40;;;;;;;1.86;71.96;99089.38;2161104;82;21613;-67
2021/03/05 10:03:49;;;;;;;25.62;8.30;;;;;;;1.64;71.46;99104.05;2161147;82;21131;-67
2021/03/05 10:06:51;;;;;;;24.02;7.10;;;;;;;1.45;72.17;99102.28;2161145;82;21155;-67
2021/03/05 10:09:53;;;;;;;22.80;7.47;;;;;;;1.33;72.01;99110.25;2161233;82;21116;-67
2021/03/05 10:12:55;;;;;;;23.67;7.08;;;;;;;1.13;73.00;99116.63;2165059;82;21289;-67
2021/03/05 10:15:57;;;;;;;22.90;7.17;;;;;;;1.14;73.07;99123.51;2178577;81;21265;-67
2021/03/05 10:18:59;;;;;;;23.70;7.00;;;;;;;1.31;73.09;99121.91;2178619;81;21558;-68
2021/03/05 10:22:01;;;;;;;21.87;6.50;;;;;;;1.61;72.27;99121.34;2178653;81;21542;-66
2021/03/05 10:25:04;;;;;;;21.75;6.50;;;;;;;1.84;71.95;99123.04;2178540;81;21589;-67
2021/03/05 10:28:06;;;;;;;22.27;6.67;;;;;;;1.92;71.73;99120.73;2178538;81;21313;-67
2021/03/05 10:31:08;;;;;;;24.52;7.12;;;;;;;2.06;71.52;99127.77;2178516;81;21309;-67
2021/03/05 10:34:10;;;;;;;19.35;5.72;;;;;;;2.21;70.90;99125.27;2178633;81;21721;-66
2021/03/05 10:37:13;;;;;;;20.92;6.37;;;;;;;2.27;69.50;99138.52;2178121;82;21102;-66
2021/03/05 10:40:15;;;;;;;16.52;4.80;;;;;;;2.29;70.10;99137.61;2178522;81;21284;-67
2021/03/05 10:43:17;;;;;;;21.45;5.47;;;;;;;2.52;68.20;99146.14;2178481;81;21146;-68
2021/03/05 10:46:19;;;;;;;20.43;5.60;;;;;;;2.85;67.12;99147.53;2178704;81;21330;-68
2021/03/05 10:49:22;;;;;;;20.17;5.28;;;;;;;3.16;66.23;99147.20;2178523;81;21269;-71
2021/03/05 10:52:26;;;;;;;17.98;4.58;;;;;;;3.37;66.27;99140.16;2178330;82;21304;-67
2021/03/05 10:55:28;;;;;;;17.60;4.97;;;;;;;3.18;64.51;99144.14;2178391;81;21305;-70
2021/03/05 10:58:30;;;;;;;17.85;4.70;;;;;;;2.86;65.98;99156.14;2178581;81;21589;-69
2021/03/05 11:01:32;;;;;;;16.97;4.90;;;;;;;2.78;65.81;99157.63;2178451;81;21147;-68
2021/03/05 11:04:34;;;;;;;18.48;4.58;;;;;;;2.66;65.39;99163.09;2178478;81;21257;-68
2021/03/05 11:07:36;;;;;;;19.92;4.53;;;;;;;2.51;66.14;99156.08;2178503;81;21747;-68
2021/03/05 11:10:39;;;;;;;18.10;5.05;;;;;;;2.38;65.20;99164.57;2178664;82;21601;-68
2021/03/05 11:13:41;;;;;;;17.98;4.15;;;;;;;2.31;66.81;99160.41;2171507;81;21281;-68
2021/03/05 11:16:43;;;;;;;17.50;4.40;;;;;;;2.52;66.93;99159.55;2161064;82;21143;-68
2021/03/05 11:19:45;;;;;;;19.32;4.80;;;;;;;2.90;65.50;99169.44;2161191;82;21725;-68
2021/03/05 11:22:47;;;;;;;19.42;4.80;;;;;;;3.29;66.32;99159.82;2161263;82;21718;-68
2021/03/05 11:25:50;;;;;;;18.80;4.70;;;;;;;3.36;62.83;99156.63;2161066;82;21155;-68
2021/03/05 11:28:53;;;;;;;18.40;4.62;;;;;;;3.35;62.99;99165.30;2160956;82;21173;-68
2021/03/05 11:31:55;;;;;;;16.30;3.92;;;;;;;3.17;62.96;99167.90;2160995;82;21159;-67
2021/03/05 11:34:57;;;;;;;15.35;4.58;;;;;;;2.74;64.01;99182.78;2161135;82;21278;-67
2021/03/05 11:38:00;;;;;;;;;;;;;;;2.48;65.25;99178.63;2163455;82;21732;-67
2021/03/05 11:41:02;;;;;;;17.83;4.50;;;;;;;2.41;64.65;99175.30;2161248;82;20226;-67
2021/03/05 11:44:04;;;;;;;19.12;4.47;;;;;;;2.62;65.11;99183.05;2161167;82;21609;-68
2021/03/05 11:47:06;;;;;;;19.82;4.87;;;;;;;2.69;63.75;99182.02;2161041;82;21728;-69
2021/03/05 11:50:10;;;;;;;17.00;4.25;;;;;;;2.42;62.55;99165.37;2139955;82;21155;-71
2021/03/05 11:53:12;;;;;;;15.25;4.28;;;;;;;2.28;64.54;99174.72;2161082;82;21291;-70
2021/03/05 11:56:14;;;;;;;18.95;5.37;;;;;;;2.28;66.82;99181.20;2161031;82;21289;-71
2021/03/05 11:59:16;;;;;;;18.48;4.45;;;;;;;2.24;65.28;99179.13;2161058;82;21147;-69
2021/03/05 12:02:19;;;;;;;19.60;4.42;;;;;;;2.32;65.91;99187.17;2161143;82;21202;-69
2021/03/05 12:05:21;;;;;;;17.82;4.55;;;;;;;2.66;64.08;99187.28;2161154;82;21285;-67
2021/03/05 12:08:23;;;;;;;17.23;4.20;;;;;;;2.64;62.29;99189.48;2139933;82;21294;-66
2021/03/05 12:11:26;;;;;;;17.15;4.05;;;;;;;2.43;62.91;99193.81;2161001;82;21131;-66
2021/03/05 12:14:28;;;;;;;17.32;4.40;;;;;;;2.22;62.18;99199.45;2166785;81;21600;-66
2021/03/05 12:17:30;;;;;;;16.87;4.08;;;;;;;2.01;64.22;99193.84;2171187;82;21281;-67
2021/03/05 12:20:32;;;;;;;17.67;4.30;;;;;;;1.94;63.89;99193.98;2171124;82;21253;-69
2021/03/05 12:23:34;;;;;;;17.42;4.47;;;;;;;2.00;65.03;99195.17;2171440;82;21277;-67
2021/03/05 12:26:36;;;;;;;14.55;3.98;;;;;;;1.99;63.22;99204.66;2171190;82;21285;-67
2021/03/05 12:29:38;;;;;;;20.27;4.62;;;;;;;2.01;64.25;99209.37;2171188;82;21613;-68
2021/03/05 12:32:40;;;;;;;14.87;3.98;;;;;;;2.08;64.31;99207.07;2171092;82;21567;-67
2021/03/05 12:35:42;;;;;;;19.77;4.00;;;;;;;2.72;64.58;99209.14;2171380;82;21293;-67
2021/03/05 12:38:44;;;;;;;15.98;3.60;;;;;;;3.32;61.62;99206.86;2141773;82;21268;-67
2021/03/05 12:41:46;;;;;;;14.23;3.60;;;;;;;3.93;61.26;99206.96;2171152;82;21292;-67
2021/03/05 12:44:49;;;;;;;11.18;3.30;;;;;;;4.32;59.88;99210.64;2171201;82;21139;-67
2021/03/05 12:47:51;;;;;;;11.95;2.90;;;;;;;4.37;60.15;99209.63;2171312;82;21737;-68
2021/03/05 12:50:53;;;;;;;15.00;3.20;;;;;;;4.12;56.82;99225.49;2171346;82;21142;-67
2021/03/05 12:53:55;;;;;;;12.15;2.85;;;;;;;3.58;57.85;99236.47;2171445;82;21301;-67
2021/03/05 12:56:57;;;;;;;7.97;2.42;;;;;;;2.90;54.40;99244.58;2171378;82;21131;-66
2021/03/05 12:59:59;;;;;;;14.63;2.72;;;;;;;2.45;55.29;99245.56;2142015;82;21253;-66
2021/03/05 13:03:01;;;;;;;12.43;3.10;;;;;;;2.24;55.76;99252.91;2171277;82;21635;-68
2021/03/05 13:06:04;;;;;;;13.72;3.00;;;;;;;2.13;57.91;99255.30;2171347;82;21272;-69
2021/03/05 13:09:06;;;;;;;12.98;2.90;;;;;;;2.08;58.41;99256.23;2171325;82;21281;-66
2021/03/05 13:12:08;;;;;;;13.85;3.02;;;;;;;2.11;57.31;99254.01;2171753;82;21158;-71
2021/03/05 13:15:10;;;;;;;13.00;2.85;;;;;;;2.08;58.33;99262.71;2164374;81;21302;-67
2021/03/05 13:18:12;;;;;;;14.73;3.15;;;;;;;2.04;58.15;99266.66;2161172;82;21166;-67
2021/03/05 13:21:15;;;;;;;14.47;2.98;;;;;;;2.00;58.41;99269.76;2140106;82;21729;-68
2021/03/05 13:24:17;;;;;;;13.32;3.20;;;;;;;1.94;58.71;99280.66;2161193;82;21104;-71
2021/03/05 13:27:19;;;;;;;14.20;3.25;;;;;;;1.80;59.05;99279.63;2161391;82;21289;-71
2021/03/05 13:30:21;;;;;;;13.90;3.35;;;;;;;1.73;58.86;99284.05;2161051;82;21147;-67
2021/03/05 13:33:23;;;;;;;15.83;3.30;;;;;;;1.73;59.63;99289.22;2161123;81;21179;-67
2021/03/05 13:36:25;;;;;;;13.90;3.75;;;;;;;1.81;61.25;99295.55;2161872;82;21261;-67
2021/03/05 13:39:28;;;;;;;12.23;2.62;;;;;;;2.01;59.73;99289.59;2161420;82;21270;-66
2021/03/05 13:42:30;;;;;;;13.60;3.00;;;;;;;2.13;57.73;99288.49;2161366;82;21741;-67
2021/03/05 13:45:32;;;;;;;14.23;2.92;;;;;;;2.22;58.53;99294.77;2161140;82;21143;-66
2021/03/05 13:48:34;;;;;;;10.13;2.30;;;;;;;2.27;58.46;99295.13;2161252;82;21711;-66
2021/03/05 13:51:36;;;;;;;13.55;3.17;;;;;;;2.33;57.10;99298.88;2161369;82;21571;-67
2021/03/05 13:54:39;;;;;;;14.85;2.85;;;;;;;2.26;56.26;99308.52;2140107;82;21293;-67
2021/03/05 13:57:41;;;;;;;12.73;2.90;;;;;;;2.13;55.90;99305.77;2161173;82;21159;-69
2021/03/05 14:00:43;;;;;;;15.90;2.67;;;;;;;1.87;55.92;99315.70;2161208;82;21289;-67
2021/03/05 14:03:45;;;;;;;8.88;2.52;;;;;;;1.66;55.20;99325.13;2161170;82;21143;-68
2021/03/05 14:06:47;;;;;;;13.35;2.80;;;;;;;1.58;57.81;99324.39;2161518;82;21300;-67
2021/03/05 14:09:49;;;;;;;16.12;3.42;;;;;;;1.58;58.04;99332.14;2161143;82;21159;-68
2021/03/05 14:12:52;;;;;;;13.28;2.80;;;;;;;1.62;58.68;99331.22;2161195;82;21304;-68
2021/03/05 14:15:54;;;;;;;11.50;3.15;;;;;;;1.70;58.56;99329.37;2161199;81;21773;-67